createdAt,value
2017-12-06T00:00:40.738Z,0
2017-12-06T00:01:50.461Z,0
2017-12-06T00:03:00.440Z,0
2017-12-06T00:04:10.424Z,0
2017-12-06T00:05:20.409Z,0
2017-12-06T00:06:30.395Z,0
2017-12-06T00:07:40.111Z,0
2017-12-06T00:08:50.100Z,0
2017-12-06T00:09:59.817Z,0
2017-12-06T00:11:09.803Z,0
2017-12-06T00:12:19.794Z,0
2017-12-06T00:13:29.778Z,0
2017-12-06T00:14:39.757Z,0
2017-12-06T00:15:49.473Z,0
2017-12-06T00:16:59.464Z,0
2017-12-06T00:18:09.191Z,0
2017-12-06T00:19:18.912Z,0
2017-12-06T00:20:28.908Z,0
2017-12-06T00:21:38.891Z,0
2017-12-06T00:22:48.608Z,0
2017-12-06T00:23:58.591Z,0
2017-12-06T00:25:08.308Z,0
2017-12-06T00:26:18.294Z,0
2017-12-06T00:27:28.012Z,0
2017-12-06T00:28:37.731Z,0
2017-12-06T00:29:47.447Z,0
2017-12-06T00:30:57.433Z,0
2017-12-06T00:32:07.419Z,0
2017-12-06T00:33:17.137Z,0
2017-12-06T00:34:27.125Z,0
2017-12-06T00:35:37.113Z,0
2017-12-06T00:36:47.093Z,0
2017-12-06T00:37:57.072Z,0
2017-12-06T00:39:07.053Z,0
2017-12-06T00:40:17.047Z,0
2017-12-06T00:41:27.030Z,0
2017-12-06T00:42:37.018Z,0
2017-12-06T00:43:46.469Z,0
2017-12-06T00:44:56.459Z,0
2017-12-06T00:46:05.911Z,0
2017-12-06T00:47:15.948Z,0
2017-12-06T00:48:25.664Z,0
2017-12-06T00:49:35.652Z,0
2017-12-06T00:50:45.639Z,0
2017-12-06T00:51:55.354Z,0
2017-12-06T00:53:05.076Z,0
2017-12-06T00:54:15.055Z,0
2017-12-06T00:55:25.040Z,0
2017-12-06T00:56:35.023Z,0
2017-12-06T00:57:45.021Z,0
2017-12-06T00:58:54.999Z,0
2017-12-06T01:00:04.987Z,0
2017-12-06T01:01:14.708Z,0
2017-12-06T01:02:24.689Z,0
2017-12-06T01:03:34.670Z,0
2017-12-06T01:04:44.654Z,0
2017-12-06T01:05:54.636Z,0
2017-12-06T01:07:04.631Z,0
2017-12-06T01:08:14.622Z,0
2017-12-06T01:09:24.333Z,0
2017-12-06T01:10:34.326Z,0
2017-12-06T01:11:44.315Z,0
2017-12-06T01:12:54.298Z,0
2017-12-06T01:14:04.286Z,0
2017-12-06T01:15:14.268Z,0
2017-12-06T01:16:24.255Z,0
2017-12-06T01:17:34.236Z,0
2017-12-06T01:18:43.955Z,0
2017-12-06T01:19:53.945Z,0
2017-12-06T01:21:03.666Z,0
2017-12-06T01:22:13.518Z,0
2017-12-06T01:23:22.967Z,0
2017-12-06T01:24:32.949Z,0
2017-12-06T01:25:42.931Z,0
2017-12-06T01:26:52.912Z,0
2017-12-06T01:28:02.629Z,0
2017-12-06T01:29:12.618Z,0
2017-12-06T01:30:22.600Z,0
2017-12-06T01:31:32.590Z,0
2017-12-06T01:32:42.574Z,0
2017-12-06T01:33:52.293Z,0
2017-12-06T01:35:02.277Z,0
2017-12-06T01:36:11.999Z,0
2017-12-06T01:37:21.980Z,0
2017-12-06T01:38:32.023Z,0
2017-12-06T01:39:42.007Z,0
2017-12-06T01:40:51.996Z,0
2017-12-06T01:42:01.982Z,0
2017-12-06T01:43:11.979Z,0
2017-12-06T01:44:22.018Z,0
2017-12-06T01:45:32.000Z,0
2017-12-06T01:46:41.985Z,0
2017-12-06T01:47:51.702Z,0
2017-12-06T01:49:01.690Z,0
2017-12-06T01:50:11.670Z,0
2017-12-06T01:51:21.391Z,0
2017-12-06T01:52:31.426Z,0
2017-12-06T01:53:41.710Z,0
2017-12-06T01:54:51.691Z,0
2017-12-06T01:56:01.685Z,0
2017-12-06T01:57:11.662Z,0
2017-12-06T01:58:21.645Z,0
2017-12-06T01:59:31.621Z,0
2017-12-06T02:00:41.609Z,0
2017-12-06T02:01:51.599Z,0
2017-12-06T02:03:01.579Z,0
2017-12-06T02:04:11.296Z,0
2017-12-06T02:05:21.016Z,0
2017-12-06T02:06:31.009Z,0
2017-12-06T02:07:40.722Z,0
2017-12-06T02:08:50.713Z,0
2017-12-06T02:10:00.703Z,0
2017-12-06T02:11:10.420Z,0
2017-12-06T02:12:20.417Z,0
2017-12-06T02:13:30.138Z,0
2017-12-06T02:14:40.118Z,0
2017-12-06T02:15:50.106Z,0
2017-12-06T02:16:59.832Z,0
2017-12-06T02:18:09.554Z,0
2017-12-06T02:19:19.546Z,0
2017-12-06T02:20:29.262Z,0
2017-12-06T02:21:39.034Z,0
2017-12-06T02:22:49.020Z,0
2017-12-06T02:23:58.733Z,0
2017-12-06T02:25:08.194Z,0
2017-12-06T02:26:18.177Z,0
2017-12-06T02:27:28.166Z,0
2017-12-06T02:28:38.168Z,0
2017-12-06T02:29:47.946Z,0
2017-12-06T02:30:57.982Z,0
2017-12-06T02:32:07.707Z,0
2017-12-06T02:33:17.434Z,0
2017-12-06T02:34:27.415Z,0
2017-12-06T02:35:37.457Z,0
2017-12-06T02:36:47.202Z,0
2017-12-06T02:37:57.189Z,0
2017-12-06T02:39:07.179Z,0
2017-12-06T02:40:17.197Z,0
2017-12-06T02:41:27.262Z,0
2017-12-06T02:42:36.984Z,0
2017-12-06T02:43:46.968Z,0
2017-12-06T02:44:56.450Z,0
2017-12-06T02:46:06.438Z,0
2017-12-06T02:47:16.428Z,0
2017-12-06T02:48:26.412Z,0
2017-12-06T02:49:36.130Z,0
2017-12-06T02:50:45.845Z,0
2017-12-06T02:51:55.834Z,0
2017-12-06T02:53:05.829Z,0
2017-12-06T02:54:15.826Z,0
2017-12-06T02:55:25.809Z,0
2017-12-06T02:56:35.803Z,0
2017-12-06T02:57:45.789Z,0
2017-12-06T02:58:55.775Z,0
2017-12-06T03:00:05.507Z,0
2017-12-06T03:01:15.547Z,0
2017-12-06T03:02:25.264Z,0
2017-12-06T03:03:35.249Z,0
2017-12-06T03:04:45.232Z,0
2017-12-06T03:05:55.215Z,0
2017-12-06T03:07:04.666Z,0
2017-12-06T03:08:14.384Z,0
2017-12-06T03:09:24.521Z,0
2017-12-06T03:10:34.503Z,0
2017-12-06T03:11:44.223Z,0
2017-12-06T03:12:54.206Z,0
2017-12-06T03:14:04.195Z,0
2017-12-06T03:15:13.645Z,0
2017-12-06T03:16:23.359Z,0
2017-12-06T03:17:33.343Z,0
2017-12-06T03:18:43.060Z,0
2017-12-06T03:19:53.055Z,0
2017-12-06T03:21:03.079Z,0
2017-12-06T03:22:13.058Z,0
2017-12-06T03:23:22.514Z,0
2017-12-06T03:24:32.501Z,0
2017-12-06T03:25:42.213Z,0
2017-12-06T03:26:52.195Z,0
2017-12-06T03:28:01.914Z,0
2017-12-06T03:29:11.895Z,0
2017-12-06T03:30:21.903Z,0
2017-12-06T03:31:31.892Z,0
2017-12-06T03:32:41.872Z,0
2017-12-06T03:33:51.861Z,0
2017-12-06T03:35:01.577Z,0
2017-12-06T03:36:11.621Z,0
2017-12-06T03:37:21.603Z,0
2017-12-06T03:38:31.631Z,0
2017-12-06T03:39:41.612Z,0
2017-12-06T03:40:51.597Z,0
2017-12-06T03:42:01.577Z,0
2017-12-06T03:43:11.569Z,0
2017-12-06T03:44:21.550Z,0
2017-12-06T03:45:31.528Z,0
2017-12-06T03:46:41.305Z,0
2017-12-06T03:47:51.292Z,0
2017-12-06T03:49:01.276Z,0
2017-12-06T03:50:11.257Z,0
2017-12-06T03:51:21.252Z,0
2017-12-06T03:52:31.306Z,0
2017-12-06T03:53:41.299Z,0
2017-12-06T03:54:51.014Z,0
2017-12-06T03:56:00.993Z,0
2017-12-06T03:57:10.973Z,0
2017-12-06T03:58:20.956Z,0
2017-12-06T03:59:30.937Z,0
2017-12-06T04:03:29.563Z,0
2017-12-06T04:04:39.297Z,0
2017-12-06T04:05:49.279Z,0
2017-12-06T04:06:59.268Z,0
2017-12-06T04:08:08.984Z,0
2017-12-06T04:09:18.439Z,0
2017-12-06T04:10:28.423Z,0
2017-12-06T04:11:38.143Z,0
2017-12-06T04:12:47.867Z,0
2017-12-06T04:13:57.849Z,0
2017-12-06T04:15:07.564Z,0
2017-12-06T04:16:17.546Z,0
2017-12-06T04:17:26.999Z,0
2017-12-06T04:18:36.725Z,0
2017-12-06T04:19:46.177Z,0
2017-12-06T04:20:56.166Z,0
2017-12-06T04:22:05.899Z,0
2017-12-06T04:23:15.886Z,0
2017-12-06T04:24:25.611Z,0
2017-12-06T04:25:35.331Z,0
2017-12-06T04:26:45.045Z,0
2017-12-06T04:27:54.760Z,0
2017-12-06T04:29:04.748Z,0
2017-12-06T04:30:14.734Z,0
2017-12-06T04:31:24.713Z,0
2017-12-06T04:32:34.699Z,0
2017-12-06T04:33:44.427Z,0
2017-12-06T04:34:54.412Z,0
2017-12-06T04:36:04.138Z,0
2017-12-06T04:37:14.120Z,0
2017-12-06T04:38:23.834Z,0
2017-12-06T04:39:33.813Z,0
2017-12-06T04:40:43.798Z,0
2017-12-06T04:41:53.792Z,0
2017-12-06T04:43:03.515Z,0
2017-12-06T04:44:13.296Z,0
2017-12-06T04:45:23.283Z,0
2017-12-06T04:46:33.278Z,0
2017-12-06T04:47:43.263Z,0
2017-12-06T04:48:53.246Z,0
2017-12-06T04:50:03.235Z,0
2017-12-06T04:51:13.218Z,0
2017-12-06T04:52:23.224Z,0
2017-12-06T04:53:32.943Z,0
2017-12-06T04:54:42.400Z,0
2017-12-06T04:55:52.382Z,0
2017-12-06T04:57:02.362Z,0
2017-12-06T04:58:12.343Z,0
2017-12-06T04:59:22.060Z,0
2017-12-06T05:00:31.775Z,0
2017-12-06T05:01:41.754Z,0
2017-12-06T05:02:51.470Z,0
2017-12-06T05:04:01.449Z,0
2017-12-06T05:05:11.173Z,0
2017-12-06T05:06:21.158Z,0
2017-12-06T05:07:31.143Z,0
2017-12-06T05:08:41.128Z,0
2017-12-06T05:09:51.122Z,0
2017-12-06T05:11:00.835Z,0
2017-12-06T05:12:10.816Z,0
2017-12-06T05:13:20.537Z,0
2017-12-06T05:14:30.525Z,0
2017-12-06T05:15:40.524Z,0
2017-12-06T05:16:50.506Z,0
2017-12-06T05:18:00.493Z,0
2017-12-06T05:19:10.474Z,0
2017-12-06T05:20:20.455Z,0
2017-12-06T05:21:30.434Z,0
2017-12-06T05:22:40.418Z,0
2017-12-06T05:23:50.417Z,0
2017-12-06T05:25:00.136Z,0
2017-12-06T05:26:09.860Z,0
2017-12-06T05:27:19.841Z,0
2017-12-06T05:28:29.831Z,0
2017-12-06T05:29:39.815Z,0
2017-12-06T05:30:49.808Z,0
2017-12-06T05:31:59.787Z,0
2017-12-06T05:33:09.821Z,0
2017-12-06T05:34:19.808Z,0
2017-12-06T05:35:29.526Z,0
2017-12-06T05:36:39.533Z,0
2017-12-06T05:37:49.521Z,0
2017-12-06T05:38:59.502Z,0
2017-12-06T05:40:09.491Z,0
2017-12-06T05:41:19.474Z,0
2017-12-06T05:42:31.462Z,0
2017-12-06T05:43:41.452Z,0
2017-12-06T05:44:51.446Z,0
2017-12-06T05:46:01.166Z,0
2017-12-06T05:47:11.153Z,0
2017-12-06T05:48:21.134Z,0
2017-12-06T05:49:31.142Z,0
2017-12-06T05:50:41.125Z,0
2017-12-06T05:51:51.108Z,0
2017-12-06T05:53:00.826Z,0
2017-12-06T05:54:10.808Z,0
2017-12-06T05:55:20.520Z,0
2017-12-06T05:56:30.508Z,0
2017-12-06T05:57:40.493Z,0
2017-12-06T05:58:50.477Z,0
2017-12-06T06:00:00.191Z,0
2017-12-06T06:01:09.641Z,0
2017-12-06T06:02:19.634Z,0
2017-12-06T06:03:29.623Z,0
2017-12-06T06:04:39.614Z,0
2017-12-06T06:05:49.336Z,0
2017-12-06T06:06:59.057Z,0
2017-12-06T06:08:08.778Z,0
2017-12-06T06:09:18.263Z,0
2017-12-06T06:10:28.252Z,0
2017-12-06T06:11:39.086Z,0
2017-12-06T06:12:48.806Z,0
2017-12-06T06:13:58.790Z,0
2017-12-06T06:15:08.768Z,0
2017-12-06T06:16:18.750Z,0
2017-12-06T06:17:28.731Z,0
2017-12-06T06:18:38.721Z,0
2017-12-06T06:19:48.702Z,0
2017-12-06T06:20:58.681Z,0
2017-12-06T06:22:08.720Z,0
2017-12-06T06:23:18.436Z,0
2017-12-06T06:24:28.423Z,0
2017-12-06T06:25:38.409Z,0
2017-12-06T06:26:48.395Z,0
2017-12-06T06:27:58.114Z,0
2017-12-06T06:29:08.104Z,0
2017-12-06T06:30:18.089Z,0
2017-12-06T06:31:27.801Z,0
2017-12-06T06:32:37.522Z,0
2017-12-06T06:33:47.237Z,0
2017-12-06T06:34:57.225Z,0
2017-12-06T06:36:06.946Z,0
2017-12-06T06:37:16.663Z,0
2017-12-06T06:38:26.376Z,0
2017-12-06T06:39:36.360Z,0
2017-12-06T06:40:46.341Z,0
2017-12-06T06:41:56.059Z,0
2017-12-06T06:43:06.046Z,0
2017-12-06T06:44:15.762Z,0
2017-12-06T06:45:25.480Z,0
2017-12-06T06:46:35.464Z,0
2017-12-06T06:47:45.454Z,0
2017-12-06T06:48:55.510Z,0
2017-12-06T06:50:04.964Z,0
2017-12-06T06:51:14.436Z,0
2017-12-06T06:52:24.436Z,0
2017-12-06T06:53:34.158Z,0
2017-12-06T06:54:44.137Z,0
2017-12-06T06:55:53.860Z,0
2017-12-06T06:57:03.862Z,0
2017-12-06T06:58:13.628Z,0
2017-12-06T06:59:23.085Z,0
2017-12-06T07:00:33.121Z,0
2017-12-06T07:01:43.102Z,0
2017-12-06T07:02:53.084Z,0
2017-12-06T07:04:02.595Z,0
2017-12-06T07:05:12.312Z,0
2017-12-06T07:06:22.295Z,0
2017-12-06T07:07:32.010Z,0
2017-12-06T07:08:42.200Z,0
2017-12-06T07:09:54.209Z,0
2017-12-06T07:11:04.198Z,0
2017-12-06T07:12:14.181Z,0
2017-12-06T07:13:24.161Z,0
2017-12-06T07:14:33.884Z,0
2017-12-06T07:15:43.873Z,0
2017-12-06T07:16:53.856Z,0
2017-12-06T07:18:03.834Z,0
2017-12-06T07:19:13.553Z,4
2017-12-06T07:20:23.538Z,4
2017-12-06T07:21:33.257Z,4
2017-12-06T07:22:42.973Z,4
2017-12-06T07:23:52.967Z,4
2017-12-06T07:25:03.008Z,4
2017-12-06T07:26:12.745Z,4
2017-12-06T07:27:22.472Z,8
2017-12-06T07:28:32.455Z,4
2017-12-06T07:29:42.436Z,8
2017-12-06T07:30:52.417Z,8
2017-12-06T07:32:02.135Z,8
2017-12-06T07:33:12.119Z,12
2017-12-06T07:34:21.844Z,8
2017-12-06T07:35:31.826Z,12
2017-12-06T07:36:41.282Z,16
2017-12-06T07:37:51.001Z,16
2017-12-06T07:39:01.022Z,16
2017-12-06T07:40:10.481Z,20
2017-12-06T07:41:20.463Z,24
2017-12-06T07:42:30.455Z,28
2017-12-06T07:43:40.436Z,28
2017-12-06T07:44:50.427Z,36
2017-12-06T07:46:00.410Z,36
2017-12-06T07:47:10.128Z,40
2017-12-06T07:48:19.581Z,48
2017-12-06T07:49:29.652Z,52
2017-12-06T07:50:39.632Z,56
2017-12-06T07:51:49.348Z,64
2017-12-06T07:52:59.329Z,68
2017-12-06T07:54:09.318Z,76
2017-12-06T07:55:19.035Z,84
2017-12-06T07:56:29.028Z,92
2017-12-06T07:57:38.741Z,96
2017-12-06T07:58:48.727Z,100
2017-12-06T07:59:58.447Z,108
2017-12-06T08:01:08.178Z,120
2017-12-06T08:02:18.163Z,124
2017-12-06T08:03:27.618Z,132
2017-12-06T08:04:37.339Z,140
2017-12-06T08:05:47.067Z,144
2017-12-06T08:06:57.056Z,156
2017-12-06T08:08:06.778Z,168
2017-12-06T08:09:16.762Z,176
2017-12-06T08:10:26.749Z,184
2017-12-06T08:11:36.477Z,192
2017-12-06T08:12:46.196Z,196
2017-12-06T08:13:55.652Z,208
2017-12-06T08:15:05.641Z,216
2017-12-06T08:16:15.622Z,232
2017-12-06T08:17:25.602Z,244
2017-12-06T08:18:35.583Z,264
2017-12-06T08:19:45.307Z,280
2017-12-06T08:20:54.496Z,300
2017-12-06T08:22:04.480Z,320
2017-12-06T08:23:14.469Z,336
2017-12-06T08:24:24.450Z,352
2017-12-06T08:25:34.441Z,372
2017-12-06T08:26:44.158Z,388
2017-12-06T08:27:53.884Z,400
2017-12-06T08:29:03.916Z,424
2017-12-06T08:30:13.411Z,440
2017-12-06T08:31:23.398Z,456
2017-12-06T08:32:32.850Z,476
2017-12-06T08:33:42.568Z,496
2017-12-06T08:34:52.552Z,528
2017-12-06T08:36:02.005Z,556
2017-12-06T08:37:11.726Z,576
2017-12-06T08:38:21.706Z,596
2017-12-06T08:39:31.686Z,620
2017-12-06T08:40:41.678Z,640
2017-12-06T08:41:51.666Z,656
2017-12-06T08:43:01.649Z,680
2017-12-06T08:44:11.632Z,704
2017-12-06T08:45:21.617Z,724
2017-12-06T08:46:31.599Z,748
2017-12-06T08:47:41.576Z,764
2017-12-06T08:48:51.292Z,780
2017-12-06T08:50:00.751Z,808
2017-12-06T08:51:10.481Z,832
2017-12-06T08:52:20.195Z,856
2017-12-06T08:53:30.179Z,868
2017-12-06T08:54:40.162Z,892
2017-12-06T08:55:50.145Z,920
2017-12-06T08:57:00.141Z,932
2017-12-06T08:58:10.120Z,968
2017-12-06T08:59:19.837Z,980
2017-12-06T09:00:30.327Z,996
2017-12-06T09:01:40.316Z,1036
2017-12-06T09:02:50.028Z,1088
2017-12-06T09:03:59.747Z,1164
2017-12-06T09:05:09.198Z,1220
2017-12-06T09:06:19.233Z,1252
2017-12-06T09:07:28.949Z,1304
2017-12-06T09:08:38.936Z,1364
2017-12-06T09:09:48.653Z,1384
2017-12-06T09:10:58.644Z,1404
2017-12-06T09:12:08.366Z,1412
2017-12-06T09:13:18.360Z,1424
2017-12-06T09:14:28.076Z,1412
2017-12-06T09:15:37.525Z,1404
2017-12-06T09:16:47.253Z,1416
2017-12-06T09:17:57.242Z,1420
2017-12-06T09:19:07.225Z,1420
2017-12-06T09:20:17.206Z,1448
2017-12-06T09:21:27.192Z,1464
2017-12-06T09:22:37.175Z,1516
2017-12-06T09:23:47.155Z,1540
2017-12-06T09:24:56.874Z,1584
2017-12-06T09:26:06.859Z,1600
2017-12-06T09:27:16.578Z,1552
2017-12-06T09:28:26.290Z,1620
2017-12-06T09:29:36.272Z,1668
2017-12-06T09:30:45.994Z,1716
2017-12-06T09:31:55.990Z,1704
2017-12-06T09:33:05.708Z,1664
2017-12-06T09:34:15.161Z,1668
2017-12-06T09:35:24.612Z,1700
2017-12-06T09:36:34.596Z,1716
2017-12-06T09:37:44.577Z,1752
2017-12-06T09:38:54.294Z,1764
2017-12-06T09:40:04.291Z,1780
2017-12-06T09:41:14.015Z,1800
2017-12-06T09:42:23.996Z,1804
2017-12-06T09:43:33.711Z,1832
2017-12-06T09:44:43.759Z,1904
2017-12-06T09:45:53.213Z,1976
2017-12-06T09:47:05.199Z,2032
2017-12-06T09:48:15.191Z,2052
2017-12-06T09:49:24.639Z,2032
2017-12-06T09:50:34.355Z,2056
2017-12-06T09:51:44.336Z,2088
2017-12-06T09:52:54.053Z,2120
2017-12-06T09:54:03.781Z,2152
2017-12-06T09:55:13.763Z,2212
2017-12-06T09:56:23.211Z,2284
2017-12-06T09:57:32.931Z,2324
2017-12-06T09:58:42.646Z,2412
2017-12-06T09:59:52.097Z,2476
2017-12-06T10:01:02.110Z,2520
2017-12-06T10:02:11.834Z,2512
2017-12-06T10:03:21.022Z,2488
2017-12-06T10:04:31.005Z,2476
2017-12-06T10:05:40.752Z,2460
2017-12-06T10:06:50.474Z,2484
2017-12-06T10:08:00.458Z,2532
2017-12-06T10:09:10.174Z,2568
2017-12-06T10:10:20.232Z,2608
2017-12-06T10:11:29.952Z,2676
2017-12-06T10:12:39.938Z,2728
2017-12-06T10:13:49.662Z,2752
2017-12-06T10:14:59.648Z,2800
2017-12-06T10:16:09.645Z,2880
2017-12-06T10:17:19.625Z,2984
2017-12-06T10:18:29.608Z,3048
2017-12-06T10:19:39.328Z,3120
2017-12-06T10:20:49.315Z,3188
2017-12-06T10:21:59.302Z,3196
2017-12-06T10:23:09.288Z,3220
2017-12-06T10:24:19.008Z,3228
2017-12-06T10:25:28.743Z,3216
2017-12-06T10:26:38.460Z,3204
2017-12-06T10:27:48.449Z,3172
2017-12-06T10:28:58.436Z,3132
2017-12-06T10:30:07.890Z,3144
2017-12-06T10:31:17.921Z,3168
2017-12-06T10:32:27.916Z,3212
2017-12-06T10:33:37.634Z,3212
2017-12-06T10:34:47.352Z,3204
2017-12-06T10:35:57.080Z,3196
2017-12-06T10:37:07.136Z,3168
2017-12-06T10:38:16.855Z,3120
2017-12-06T10:39:26.873Z,3064
2017-12-06T10:40:36.859Z,3056
2017-12-06T10:41:46.840Z,3092
2017-12-06T10:42:56.829Z,3132
2017-12-06T10:44:06.811Z,3152
2017-12-06T10:45:16.988Z,3180
2017-12-06T10:46:26.986Z,3244
2017-12-06T10:47:36.983Z,3348
2017-12-06T10:48:46.707Z,3468
2017-12-06T10:49:56.695Z,3528
2017-12-06T10:51:06.411Z,3552
2017-12-06T10:52:16.417Z,3500
2017-12-06T10:53:26.414Z,3488
2017-12-06T10:54:36.136Z,3480
2017-12-06T10:55:46.132Z,3480
2017-12-06T10:56:56.118Z,3500
2017-12-06T10:58:05.890Z,3508
2017-12-06T10:59:15.872Z,3488
2017-12-06T11:00:25.600Z,3412
2017-12-06T11:01:35.052Z,3336
2017-12-06T11:02:44.773Z,3284
2017-12-06T11:03:54.758Z,3276
2017-12-06T11:05:04.750Z,3300
2017-12-06T11:06:14.203Z,3316
2017-12-06T11:07:24.194Z,3292
2017-12-06T11:08:33.922Z,3320
2017-12-06T11:09:43.966Z,3356
2017-12-06T11:10:53.689Z,3264
2017-12-06T11:12:03.406Z,3152
2017-12-06T11:13:13.403Z,3000
2017-12-06T11:14:23.393Z,2836
2017-12-06T11:15:33.118Z,2728
2017-12-06T11:16:42.840Z,2636
2017-12-06T11:17:52.562Z,2588
2017-12-06T11:19:02.287Z,2556
2017-12-06T11:20:11.748Z,2516
2017-12-06T11:21:21.734Z,2460
2017-12-06T11:22:31.457Z,2400
2017-12-06T11:23:41.172Z,2364
2017-12-06T11:24:51.160Z,2344
2017-12-06T11:26:01.386Z,2332
2017-12-06T11:27:11.375Z,2296
2017-12-06T11:28:21.364Z,2240
2017-12-06T11:29:31.349Z,2164
2017-12-06T11:30:41.341Z,2096
2017-12-06T11:31:51.090Z,2056
2017-12-06T11:33:01.080Z,2008
2017-12-06T11:34:11.062Z,1944
2017-12-06T11:35:21.047Z,1880
2017-12-06T11:36:31.030Z,1848
2017-12-06T11:37:40.746Z,1860
2017-12-06T11:38:50.465Z,1872
2017-12-06T11:40:00.450Z,1900
2017-12-06T11:41:10.432Z,1896
2017-12-06T11:42:20.420Z,1896
2017-12-06T11:43:30.137Z,1936
2017-12-06T11:44:40.118Z,2012
2017-12-06T11:45:50.104Z,2076
2017-12-06T11:47:00.085Z,2104
2017-12-06T11:48:09.538Z,2072
2017-12-06T11:49:19.530Z,2020
2017-12-06T11:50:29.513Z,1988
2017-12-06T11:51:39.496Z,1984
2017-12-06T11:52:49.476Z,2012
2017-12-06T11:53:59.470Z,2016
2017-12-06T11:55:09.459Z,2000
2017-12-06T11:56:19.445Z,1996
2017-12-06T11:57:28.898Z,2000
2017-12-06T11:58:38.622Z,2032
2017-12-06T11:59:48.609Z,2040
2017-12-06T12:00:58.058Z,2020
2017-12-06T12:02:07.511Z,2016
2017-12-06T12:03:17.496Z,1992
2017-12-06T12:04:27.486Z,1940
2017-12-06T12:05:37.476Z,1896
2017-12-06T12:06:47.201Z,1860
2017-12-06T12:07:57.187Z,1804
2017-12-06T12:09:07.167Z,1760
2017-12-06T12:10:16.887Z,1728
2017-12-06T12:11:26.608Z,1724
2017-12-06T12:12:36.594Z,1720
2017-12-06T12:13:46.309Z,1748
2017-12-06T12:14:56.297Z,1752
2017-12-06T12:16:06.018Z,1728
2017-12-06T12:17:15.733Z,1700
2017-12-06T12:18:25.720Z,1660
2017-12-06T12:19:35.434Z,1604
2017-12-06T12:20:45.160Z,1536
2017-12-06T12:21:54.349Z,1472
2017-12-06T12:23:04.345Z,1432
2017-12-06T12:24:14.063Z,1384
2017-12-06T12:25:24.043Z,1356
2017-12-06T12:26:34.032Z,1344
2017-12-06T12:27:43.755Z,1328
2017-12-06T12:28:53.474Z,1320
2017-12-06T12:30:03.458Z,1316
2017-12-06T12:31:13.177Z,1304
2017-12-06T12:32:23.159Z,1300
2017-12-06T12:33:32.874Z,1264
2017-12-06T12:34:42.854Z,1232
2017-12-06T12:35:52.850Z,1200
2017-12-06T12:37:02.829Z,1196
2017-12-06T12:38:12.295Z,1200
2017-12-06T12:39:22.277Z,1200
2017-12-06T12:40:32.047Z,1216
2017-12-06T12:41:42.026Z,1244
2017-12-06T12:42:52.028Z,1248
2017-12-06T12:44:02.013Z,1248
2017-12-06T12:45:11.755Z,1228
2017-12-06T12:46:21.742Z,1216
2017-12-06T12:47:31.785Z,1224
2017-12-06T12:48:41.762Z,1228
2017-12-06T12:49:51.485Z,1252
2017-12-06T12:51:01.468Z,1244
2017-12-06T12:52:11.448Z,1244
2017-12-06T12:53:21.431Z,1236
2017-12-06T12:54:31.531Z,1224
2017-12-06T12:55:41.247Z,1228
2017-12-06T12:56:51.227Z,1220
2017-12-06T12:58:01.293Z,1208
2017-12-06T12:59:11.009Z,1204
2017-12-06T13:00:20.994Z,1204
2017-12-06T13:01:30.975Z,1208
2017-12-06T13:02:40.748Z,1192
2017-12-06T13:03:50.739Z,1176
2017-12-06T13:05:02.775Z,1156
2017-12-06T13:06:12.230Z,1152
2017-12-06T13:07:22.215Z,1156
2017-12-06T13:08:31.931Z,1152
2017-12-06T13:09:41.912Z,1152
2017-12-06T13:10:51.899Z,1152
2017-12-06T13:12:01.634Z,1152
2017-12-06T13:13:11.635Z,1160
2017-12-06T13:14:20.823Z,1160
2017-12-06T13:15:30.817Z,1176
2017-12-06T13:16:40.533Z,1184
2017-12-06T13:17:50.519Z,1180
2017-12-06T13:19:00.235Z,1184
2017-12-06T13:20:09.950Z,1172
2017-12-06T13:21:19.931Z,1108
2017-12-06T13:22:29.646Z,1048
2017-12-06T13:23:39.627Z,1008
2017-12-06T13:24:49.349Z,972
2017-12-06T13:25:59.078Z,928
2017-12-06T13:27:09.084Z,896
2017-12-06T13:28:18.805Z,868
2017-12-06T13:29:28.821Z,828
2017-12-06T13:30:38.812Z,796
2017-12-06T13:31:48.532Z,760
2017-12-06T13:32:58.250Z,724
2017-12-06T13:34:08.252Z,688
2017-12-06T13:35:17.971Z,660
2017-12-06T13:36:27.954Z,624
2017-12-06T13:37:37.938Z,588
2017-12-06T13:38:47.918Z,552
2017-12-06T13:40:01.405Z,520
2017-12-06T13:41:11.123Z,488
2017-12-06T13:42:21.116Z,460
2017-12-06T13:43:30.836Z,436
2017-12-06T13:44:40.819Z,408
2017-12-06T13:45:50.811Z,396
2017-12-06T13:47:00.796Z,388
2017-12-06T13:48:10.512Z,380
2017-12-06T13:49:20.505Z,368
2017-12-06T13:50:29.956Z,364
2017-12-06T13:51:40.000Z,352
2017-12-06T13:52:49.988Z,332
2017-12-06T13:53:59.969Z,316
2017-12-06T13:55:09.689Z,300
2017-12-06T13:56:19.675Z,292
2017-12-06T13:57:29.657Z,284
2017-12-06T13:58:39.372Z,280
2017-12-06T13:59:49.088Z,272
2017-12-06T14:00:59.077Z,264
2017-12-06T14:02:08.531Z,256
2017-12-06T14:03:18.519Z,244
2017-12-06T14:04:28.501Z,228
2017-12-06T14:05:38.511Z,208
2017-12-06T14:06:48.494Z,192
2017-12-06T14:07:58.482Z,176
2017-12-06T14:09:08.470Z,160
2017-12-06T14:10:18.461Z,148
2017-12-06T14:11:28.176Z,136
2017-12-06T14:12:38.166Z,128
2017-12-06T14:13:48.153Z,120
2017-12-06T14:14:58.140Z,112
2017-12-06T14:16:07.855Z,100
2017-12-06T14:17:17.571Z,96
2017-12-06T14:18:27.348Z,88
2017-12-06T14:19:37.363Z,80
2017-12-06T14:20:47.351Z,76
2017-12-06T14:21:57.339Z,68
2017-12-06T14:23:07.319Z,60
2017-12-06T14:24:17.110Z,52
2017-12-06T14:25:26.830Z,48
2017-12-06T14:26:36.546Z,44
2017-12-06T14:27:46.532Z,40
2017-12-06T14:28:56.525Z,36
2017-12-06T14:30:06.513Z,28
2017-12-06T14:31:16.496Z,24
2017-12-06T14:32:26.481Z,24
2017-12-06T14:33:36.472Z,20
2017-12-06T14:34:46.474Z,20
2017-12-06T14:35:56.459Z,16
2017-12-06T14:37:06.443Z,16
2017-12-06T14:38:18.423Z,16
2017-12-06T14:39:28.217Z,12
2017-12-06T14:40:38.197Z,12
2017-12-06T14:41:47.917Z,12
2017-12-06T14:42:57.639Z,8
2017-12-06T14:44:07.621Z,12
2017-12-06T14:45:17.340Z,8
2017-12-06T14:46:27.053Z,4
2017-12-06T14:47:37.034Z,8
2017-12-06T14:48:47.024Z,4
2017-12-06T14:49:57.016Z,4
2017-12-06T14:51:07.001Z,4
2017-12-06T14:52:16.454Z,4
2017-12-06T14:53:26.438Z,4
2017-12-06T14:54:36.157Z,4
2017-12-06T14:55:46.139Z,4
2017-12-06T14:56:56.121Z,0
2017-12-06T14:58:05.857Z,0
2017-12-06T14:59:15.626Z,0
2017-12-06T15:00:25.615Z,0
2017-12-06T15:01:35.594Z,0
2017-12-06T15:02:45.575Z,0
2017-12-06T15:03:55.557Z,0
2017-12-06T15:05:05.278Z,0
2017-12-06T15:06:15.261Z,0
2017-12-06T15:07:25.307Z,0
2017-12-06T15:08:35.289Z,0
2017-12-06T15:09:45.006Z,0
2017-12-06T15:10:54.989Z,0
2017-12-06T15:12:04.975Z,0
2017-12-06T15:13:14.957Z,0
2017-12-06T15:14:24.943Z,0
2017-12-06T15:15:34.662Z,0
2017-12-06T15:16:44.650Z,0
2017-12-06T15:17:54.635Z,0
2017-12-06T15:19:04.614Z,0
2017-12-06T15:20:14.327Z,0
2017-12-06T15:21:24.317Z,0
2017-12-06T15:22:33.770Z,0
2017-12-06T15:23:43.749Z,0
2017-12-06T15:24:53.470Z,0
2017-12-06T15:26:03.501Z,0
2017-12-06T15:27:13.221Z,0
2017-12-06T15:28:23.248Z,0
2017-12-06T15:29:33.059Z,0
2017-12-06T15:30:43.048Z,0
2017-12-06T15:31:53.029Z,0
2017-12-06T15:33:03.016Z,0
2017-12-06T15:34:13.007Z,0
2017-12-06T15:35:22.456Z,0
2017-12-06T15:36:32.439Z,0
2017-12-06T15:37:42.154Z,0
2017-12-06T15:38:52.137Z,0
2017-12-06T15:40:02.119Z,0
2017-12-06T15:41:11.873Z,0
2017-12-06T15:42:21.853Z,0
2017-12-06T15:43:31.843Z,0
2017-12-06T15:44:41.848Z,0
2017-12-06T15:45:51.831Z,0
2017-12-06T15:47:01.559Z,0
2017-12-06T15:48:11.328Z,0
2017-12-06T15:49:21.309Z,0
2017-12-06T15:50:31.027Z,0
2017-12-06T15:51:41.012Z,0
2017-12-06T15:52:50.732Z,0
2017-12-06T15:54:00.714Z,0
2017-12-06T15:55:10.697Z,0
2017-12-06T15:56:20.680Z,0
2017-12-06T15:57:30.679Z,0
2017-12-06T15:58:40.707Z,0
2017-12-06T15:59:50.429Z,0
2017-12-06T16:01:00.412Z,0
2017-12-06T16:02:10.402Z,0
2017-12-06T16:03:20.390Z,0
2017-12-06T16:04:30.373Z,0
2017-12-06T16:05:40.366Z,0
2017-12-06T16:06:50.356Z,0
2017-12-06T16:08:00.072Z,0
2017-12-06T16:09:10.056Z,0
2017-12-06T16:10:20.051Z,0
2017-12-06T16:11:29.767Z,0
2017-12-06T16:12:39.493Z,0
2017-12-06T16:13:49.476Z,0
2017-12-06T16:14:59.463Z,0
2017-12-06T16:16:09.457Z,0
2017-12-06T16:17:20.377Z,0
2017-12-06T16:18:30.357Z,0
2017-12-06T16:19:40.092Z,0
2017-12-06T16:20:50.087Z,0
2017-12-06T16:22:00.069Z,0
2017-12-06T16:23:10.064Z,0
2017-12-06T16:24:19.780Z,0
2017-12-06T16:25:29.802Z,0
2017-12-06T16:26:39.520Z,0
2017-12-06T16:27:49.502Z,0
2017-12-06T16:28:59.527Z,0
2017-12-06T16:30:09.513Z,0
2017-12-06T16:31:19.503Z,0
2017-12-06T16:32:29.480Z,0
2017-12-06T16:33:39.198Z,0
2017-12-06T16:34:49.180Z,0
2017-12-06T16:35:59.166Z,0
2017-12-06T16:37:09.159Z,0